createdAt,value
2022-09-23T00:02:07.358Z,83.52
2022-09-23T00:04:57.427Z,83.29
2022-09-23T00:07:47.606Z,81.56
2022-09-23T00:10:40.969Z,80.96
2022-09-23T00:13:31.795Z,80.17
2022-09-23T00:16:29.780Z,79.91
2022-09-23T00:19:19.846Z,79.12
2022-09-23T00:22:10.347Z,78.82
2022-09-23T00:25:04.170Z,79.36
2022-09-23T00:27:54.873Z,79.31
2022-09-23T00:30:46.283Z,78.38
2022-09-23T00:33:36.821Z,77.87
2022-09-23T00:36:28.298Z,77.50
2022-09-23T00:39:19.631Z,76.85
2022-09-23T00:42:17.797Z,76.34
2022-09-23T00:45:12.998Z,76.34
2022-09-23T00:48:07.739Z,76.05
2022-09-23T00:50:58.685Z,76.17
2022-09-23T00:53:51.188Z,76.43
2022-09-23T00:56:41.637Z,75.77
2022-09-23T00:59:31.966Z,75.87
2022-09-23T01:02:25.263Z,75.25
2022-09-23T01:05:16.586Z,75.51
2022-09-23T01:08:06.867Z,75.59
2022-09-23T01:11:09.433Z,74.68
2022-09-23T01:14:12.403Z,73.12
2022-09-23T01:17:09.628Z,73.34
2022-09-23T01:20:10.608Z,73.33
2022-09-23T01:23:19.340Z,74.78
2022-09-23T01:26:29.678Z,75.68
2022-09-23T01:29:38.154Z,75.70
2022-09-23T01:32:47.269Z,76.21
2022-09-23T01:35:57.178Z,75.71
2022-09-23T01:38:55.244Z,76.62
2022-09-23T01:41:55.812Z,76.43
2022-09-23T01:44:53.824Z,76.05
2022-09-23T01:47:57.105Z,77.58
2022-09-23T01:51:00.281Z,77.30
2022-09-23T01:54:26.842Z,76.09
2022-09-23T01:57:47.098Z,74.85
2022-09-23T02:00:42.331Z,75.35
2022-09-23T02:03:48.551Z,74.98
2022-09-23T02:06:44.369Z,74.10
2022-09-23T02:09:39.859Z,73.10
2022-09-23T02:12:32.166Z,73.18
2022-09-23T02:15:27.328Z,72.72
2022-09-23T02:18:24.567Z,71.78
2022-09-23T02:21:15.076Z,71.79
2022-09-23T02:24:17.505Z,70.65
2022-09-23T02:27:33.475Z,69.84
2022-09-23T02:30:28.690Z,70.27
2022-09-23T02:33:41.594Z,69.62
2022-09-23T02:36:52.408Z,69.17
2022-09-23T02:39:49.533Z,68.47
2022-09-23T02:42:50.396Z,68.22
2022-09-23T02:45:40.804Z,67.40
2022-09-23T02:49:00.459Z,67.75
2022-09-23T02:51:51.729Z,67.35
2022-09-23T02:54:43.129Z,68.20
2022-09-23T02:57:33.678Z,66.52
2022-09-23T03:00:25.095Z,64.94
2022-09-23T03:03:41.894Z,63.28
2022-09-23T03:07:25.531Z,65.29
2022-09-23T03:10:23.986Z,65.44
2022-09-23T03:13:43.504Z,66.47
2022-09-23T03:17:06.261Z,65.46
2022-09-23T03:20:09.618Z,65.17
2022-09-23T03:23:05.041Z,65.24
2022-09-23T03:25:57.825Z,65.70
2022-09-23T03:28:48.937Z,64.96
2022-09-23T03:31:44.032Z,64.09
2022-09-23T03:34:36.421Z,63.69
2022-09-23T03:37:56.272Z,65.18
2022-09-23T03:40:49.230Z,65.35
2022-09-23T03:43:42.393Z,65.02
2022-09-23T03:46:36.086Z,65.19
2022-09-23T03:49:29.433Z,62.22
2022-09-23T03:52:20.908Z,62.41
2022-09-23T03:55:12.441Z,62.27
2022-09-23T03:58:04.670Z,61.98
2022-09-23T04:00:56.253Z,61.20
2022-09-23T04:03:48.545Z,62.33
2022-09-23T04:06:39.542Z,61.50
2022-09-23T04:09:31.019Z,63.10
2022-09-23T04:12:21.899Z,63.80
2022-09-23T04:15:13.491Z,62.97
2022-09-23T04:18:03.267Z,63.21
2022-09-23T04:20:53.844Z,64.27
2022-09-23T04:23:44.321Z,64.74
2022-09-23T04:26:36.272Z,64.23
2022-09-23T04:29:28.245Z,64.18
2022-09-23T04:32:18.802Z,65.45
2022-09-23T04:35:10.412Z,65.37
2022-09-23T04:38:02.027Z,65.99
2022-09-23T04:40:54.935Z,65.42
2022-09-23T04:43:46.091Z,64.93
2022-09-23T04:46:37.059Z,65.50
2022-09-23T04:49:27.945Z,65.82
2022-09-23T04:52:18.530Z,65.54
2022-09-23T04:55:11.290Z,66.14
2022-09-23T04:58:03.871Z,66.90
2022-09-23T05:00:54.730Z,67.66
2022-09-23T05:03:46.291Z,68.38
2022-09-23T05:06:37.258Z,68.54
2022-09-23T05:09:32.682Z,68.50
2022-09-23T05:12:23.471Z,68.76
2022-09-23T05:15:17.576Z,68.27
2022-09-23T05:18:11.366Z,67.86
2022-09-23T05:21:03.729Z,67.98
2022-09-23T05:23:58.054Z,68.58
2022-09-23T05:26:48.092Z,68.44
2022-09-23T05:29:39.473Z,69.55
2022-09-23T05:32:30.689Z,70.32
2022-09-23T05:35:20.985Z,70.40
2022-09-23T05:38:11.581Z,70.66
2022-09-23T05:41:03.492Z,71.01
2022-09-23T05:43:54.721Z,70.27
2022-09-23T05:46:45.938Z,70.55
2022-09-23T05:49:58.124Z,70.16
2022-09-23T05:52:48.048Z,70.12
2022-09-23T05:55:39.341Z,71.11
2022-09-23T05:58:30.220Z,71.95
2022-09-23T06:01:28.039Z,72.38
2022-09-23T06:04:19.391Z,72.31
2022-09-23T06:07:10.892Z,72.68
2022-09-23T06:10:01.600Z,72.39
2022-09-23T06:12:51.715Z,72.50
2022-09-23T06:15:42.679Z,71.91
2022-09-23T06:18:33.562Z,71.27
2022-09-23T06:21:27.750Z,72.21
2022-09-23T06:24:20.860Z,72.15
2022-09-23T06:27:12.857Z,72.68
2022-09-23T06:30:06.125Z,72.31
2022-09-23T06:32:58.006Z,72.10
2022-09-23T06:35:57.409Z,72.02
2022-09-23T06:38:50.871Z,72.24
2022-09-23T06:41:41.275Z,72.45
2022-09-23T06:44:34.650Z,72.26
2022-09-23T06:47:29.394Z,71.35
2022-09-23T06:50:20.483Z,70.40
2022-09-23T06:53:11.591Z,70.30
2022-09-23T06:56:03.915Z,69.91
2022-09-23T06:58:56.252Z,70.62
2022-09-23T07:01:47.829Z,71.43
2022-09-23T07:04:38.537Z,72.00
2022-09-23T07:07:34.267Z,72.84
2022-09-23T07:10:25.228Z,72.97
2022-09-23T07:13:16.455Z,73.42
2022-09-23T07:16:07.407Z,73.94
2022-09-23T07:18:57.592Z,73.83
2022-09-23T07:21:47.574Z,73.47
2022-09-23T07:24:38.783Z,72.88
2022-09-23T07:27:29.900Z,72.81
2022-09-23T07:30:25.139Z,72.80
2022-09-23T07:33:29.182Z,72.64
2022-09-23T07:36:22.989Z,72.86
2022-09-23T07:39:14.641Z,72.94
2022-09-23T07:42:06.783Z,73.21
2022-09-23T07:44:58.318Z,72.93
2022-09-23T07:47:48.979Z,72.49
2022-09-23T07:50:43.170Z,73.12
2022-09-23T07:53:33.855Z,73.22
2022-09-23T07:56:28.457Z,73.23
2022-09-23T07:59:20.492Z,72.95
2022-09-23T08:02:12.551Z,72.44
2022-09-23T08:05:02.797Z,72.21
2022-09-23T08:07:52.954Z,72.25
2022-09-23T08:10:44.248Z,72.62
2022-09-23T08:13:35.097Z,73.14
2022-09-23T08:16:25.709Z,73.30
2022-09-23T08:19:16.879Z,73.10
2022-09-23T08:22:07.233Z,72.45
2022-09-23T08:24:57.516Z,72.99
2022-09-23T08:27:48.423Z,72.85
2022-09-23T08:30:39.312Z,72.87
2022-09-23T08:33:30.213Z,73.20
2022-09-23T08:36:20.541Z,73.24
2022-09-23T08:39:12.450Z,73.10
2022-09-23T08:42:18.745Z,73.30
2022-09-23T08:45:20.697Z,72.80
2022-09-23T08:48:16.269Z,72.43
2022-09-23T08:51:10.064Z,72.17
2022-09-23T08:54:03.686Z,72.40
2022-09-23T08:56:54.147Z,73.06
2022-09-23T08:59:46.970Z,73.18
2022-09-23T09:02:41.497Z,73.86
2022-09-23T09:05:35.044Z,73.40
2022-09-23T09:08:28.895Z,74.36
2022-09-23T09:11:20.703Z,74.09
2022-09-23T09:14:32.362Z,74.35
2022-09-23T09:17:40.016Z,73.14
2022-09-23T09:20:40.376Z,73.33
2022-09-23T09:23:53.933Z,74.05
2022-09-23T09:26:44.775Z,74.25
2022-09-23T09:29:40.217Z,73.96
2022-09-23T09:32:48.711Z,73.72
2022-09-23T09:35:44.743Z,73.67
2022-09-23T09:38:35.289Z,74.00
2022-09-23T09:41:33.401Z,73.76
2022-09-23T09:44:50.340Z,74.15
2022-09-23T09:47:53.106Z,74.20
2022-09-23T09:50:43.583Z,73.78
2022-09-23T09:53:37.264Z,73.86
2022-09-23T09:56:36.740Z,74.13
2022-09-23T09:59:30.289Z,73.93
2022-09-23T10:02:36.377Z,74.15
2022-09-23T10:05:36.536Z,73.74
2022-09-23T10:08:39.322Z,73.93
2022-09-23T10:11:32.838Z,74.42
2022-09-23T10:14:23.278Z,74.13
2022-09-23T10:17:36.097Z,74.08
2022-09-23T10:20:27.001Z,74.45
2022-09-23T10:23:29.140Z,74.72
2022-09-23T10:26:20.440Z,74.71
2022-09-23T10:29:35.199Z,74.50
2022-09-23T10:32:28.848Z,74.58
2022-09-23T10:35:25.918Z,74.24
2022-09-23T10:38:17.159Z,74.66
2022-09-23T10:41:57.339Z,74.71
2022-09-23T10:45:08.759Z,74.67
2022-09-23T10:48:17.090Z,74.88
2022-09-23T10:51:29.054Z,74.98
2022-09-23T10:54:42.139Z,74.83
2022-09-23T10:57:48.075Z,74.99
2022-09-23T11:00:48.346Z,75.69
2022-09-23T11:03:47.822Z,75.70
2022-09-23T11:06:46.867Z,75.54
2022-09-23T11:10:23.219Z,75.69
2022-09-23T11:13:54.413Z,76.23
2022-09-23T11:16:47.979Z,75.72
2022-09-23T11:19:57.397Z,76.29
2022-09-23T11:23:26.623Z,75.40
2022-09-23T11:26:50.244Z,75.57
2022-09-23T11:29:55.404Z,75.49
2022-09-23T11:33:07.073Z,75.70
2022-09-23T11:36:07.148Z,75.89
2022-09-23T11:38:59.577Z,76.58
2022-09-23T11:41:56.923Z,76.64
2022-09-23T11:44:51.361Z,76.88
2022-09-23T11:47:49.793Z,77.58
2022-09-23T11:50:40.590Z,78.29
2022-09-23T11:53:43.018Z,78.92
2022-09-23T11:56:45.045Z,79.65
2022-09-23T11:59:41.843Z,81.01
2022-09-23T12:02:35.685Z,81.33
2022-09-23T12:05:29.155Z,82.02
2022-09-23T12:08:20.194Z,81.90
2022-09-23T12:11:32.730Z,82.77
2022-09-23T12:14:51.619Z,82.69
2022-09-23T12:17:45.228Z,82.59
2022-09-23T12:21:00.986Z,82.05
2022-09-23T12:24:04.339Z,82.25
2022-09-23T12:27:01.057Z,82.37
2022-09-23T12:29:54.767Z,83.12
2022-09-23T12:32:46.988Z,82.71
2022-09-23T12:35:42.872Z,83.08
2022-09-23T12:38:43.862Z,83.05
2022-09-23T12:41:42.913Z,83.30
2022-09-23T12:44:38.256Z,83.36
2022-09-23T12:47:40.429Z,83.14
2022-09-23T12:50:55.083Z,83.26
2022-09-23T12:53:57.683Z,83.78
2022-09-23T12:56:57.482Z,83.57
2022-09-23T12:59:55.174Z,83.87
2022-09-23T13:03:09.419Z,83.28
2022-09-23T13:06:21.667Z,83.13
2022-09-23T13:09:34.294Z,82.90
2022-09-23T13:12:41.147Z,83.32
2022-09-23T13:15:38.895Z,83.11
2022-09-23T13:18:57.311Z,82.92
2022-09-23T13:21:48.061Z,83.21
2022-09-23T13:24:55.858Z,82.88
2022-09-23T13:27:52.214Z,83.46
2022-09-23T13:30:53.577Z,83.54
2022-09-23T13:33:44.955Z,83.20
2022-09-23T13:36:48.965Z,83.10
2022-09-23T13:39:42.002Z,83.41
2022-09-23T13:42:36.035Z,83.45
2022-09-23T13:45:28.448Z,83.25
2022-09-23T13:48:19.352Z,83.13
2022-09-23T13:51:13.220Z,83.36
2022-09-23T13:54:05.795Z,83.71
2022-09-23T13:56:57.116Z,83.69
2022-09-23T13:59:47.855Z,83.93
2022-09-23T14:02:44.912Z,83.31
2022-09-23T14:05:37.865Z,82.62
2022-09-23T14:08:30.731Z,82.76
2022-09-23T14:11:22.090Z,82.35
2022-09-23T14:14:20.150Z,82.25
2022-09-23T14:17:14.231Z,82.84
2022-09-23T14:20:05.047Z,82.39
2022-09-23T14:23:12.026Z,82.14
2022-09-23T14:26:04.430Z,81.81
2022-09-23T14:28:54.954Z,81.61
2022-09-23T14:31:58.217Z,82.11
2022-09-23T14:34:51.568Z,81.61
2022-09-23T14:38:02.491Z,81.95
2022-09-23T14:40:53.639Z,81.21
2022-09-23T14:44:07.850Z,81.39
2022-09-23T14:47:00.593Z,81.65
2022-09-23T14:50:11.769Z,81.94
2022-09-23T14:53:02.229Z,82.07
2022-09-23T14:56:10.657Z,82.23
2022-09-23T14:59:02.365Z,82.25
2022-09-23T15:01:52.862Z,81.95
2022-09-23T15:04:44.099Z,81.55
2022-09-23T15:07:35.236Z,81.52
2022-09-23T15:10:30.634Z,81.53
2022-09-23T15:13:32.863Z,81.74
2022-09-23T15:16:30.580Z,81.20
2022-09-23T15:19:23.025Z,81.00
2022-09-23T15:22:14.458Z,80.45
2022-09-23T15:25:22.397Z,80.40
2022-09-23T15:28:12.858Z,80.49
2022-09-23T15:31:04.617Z,80.45
2022-09-23T15:34:03.460Z,80.12
2022-09-23T15:36:53.798Z,80.11
2022-09-23T15:39:44.358Z,80.46
2022-09-23T15:42:34.949Z,80.41
2022-09-23T15:45:37.389Z,80.66
2022-09-23T15:48:34.011Z,80.83
2022-09-23T15:51:27.998Z,80.68
2022-09-23T15:54:18.537Z,80.55
2022-09-23T15:57:10.691Z,80.59
2022-09-23T16:00:01.033Z,80.72
2022-09-23T16:03:02.555Z,80.28
2022-09-23T16:05:53.221Z,80.25
2022-09-23T16:08:45.500Z,80.01
2022-09-23T16:11:37.414Z,80.12
2022-09-23T16:14:27.940Z,80.51
2022-09-23T16:17:18.542Z,80.44
2022-09-23T16:20:10.041Z,80.90
2022-09-23T16:23:07.923Z,80.80
2022-09-23T16:25:59.333Z,81.27
2022-09-23T16:28:51.954Z,80.92
2022-09-23T16:31:42.746Z,81.04
2022-09-23T16:34:36.125Z,80.67
2022-09-23T16:37:26.402Z,80.89
2022-09-23T16:40:22.089Z,80.94
2022-09-23T16:43:13.202Z,80.48
2022-09-23T16:46:03.584Z,80.71
2022-09-23T16:48:53.465Z,80.61
2022-09-23T16:51:43.451Z,80.84
2022-09-23T16:54:33.564Z,80.92
2022-09-23T16:57:23.879Z,80.98
2022-09-23T17:00:35.222Z,81.06
2022-09-23T17:03:43.570Z,81.88
2022-09-23T17:06:33.081Z,81.69
2022-09-23T17:09:28.854Z,82.25
2022-09-23T17:12:36.358Z,82.08
2022-09-23T17:15:26.592Z,81.81
2022-09-23T17:18:19.532Z,81.37
2022-09-23T17:21:10.335Z,81.58
2022-09-23T17:24:00.441Z,81.48
2022-09-23T17:26:52.976Z,81.88
2022-09-23T17:29:46.197Z,81.69
2022-09-23T17:32:39.020Z,81.77
2022-09-23T17:35:29.687Z,81.68
2022-09-23T17:38:19.526Z,81.73
2022-09-23T17:41:10.740Z,81.59
2022-09-23T17:44:02.046Z,82.09
2022-09-23T17:46:52.588Z,81.92
2022-09-23T17:49:44.370Z,81.51
2022-09-23T17:52:34.631Z,81.21
2022-09-23T17:55:29.069Z,81.63
2022-09-23T17:58:20.386Z,81.09
2022-09-23T18:01:18.922Z,81.12
2022-09-23T18:04:09.175Z,80.79
2022-09-23T18:06:59.729Z,80.85
2022-09-23T18:09:49.660Z,81.09
2022-09-23T18:12:39.581Z,81.31
2022-09-23T18:15:34.601Z,81.03
2022-09-23T18:18:25.143Z,80.87
2022-09-23T18:21:15.248Z,81.36
2022-09-23T18:27:18.693Z,81.38
2022-09-23T18:30:09.268Z,81.57
2022-09-23T18:33:00.241Z,81.58
2022-09-23T18:35:50.037Z,81.32
2022-09-23T18:38:42.307Z,81.79
2022-09-23T18:41:33.315Z,82.29
2022-09-23T18:44:25.050Z,82.11
2022-09-23T18:47:37.226Z,82.62
2022-09-23T18:50:44.438Z,82.75
2022-09-23T18:53:34.453Z,82.84
2022-09-23T18:56:24.515Z,82.94
2022-09-23T18:59:22.660Z,83.49
2022-09-23T19:02:16.834Z,83.18
2022-09-23T19:05:14.845Z,83.14
2022-09-23T19:08:05.469Z,83.43
2022-09-23T19:11:00.535Z,83.58
2022-09-23T19:13:56.446Z,83.54
2022-09-23T19:16:46.575Z,83.53
2022-09-23T19:19:37.222Z,83.50
2022-09-23T19:22:27.689Z,83.97
2022-09-23T19:25:18.885Z,83.89
2022-09-23T19:28:09.854Z,84.04
2022-09-23T19:31:00.516Z,83.39
2022-09-23T19:34:01.505Z,83.56
2022-09-23T19:36:53.104Z,83.64
2022-09-23T19:39:43.865Z,83.38
2022-09-23T19:42:34.429Z,83.59
2022-09-23T19:45:24.411Z,83.38
2022-09-23T19:48:14.558Z,83.26
2022-09-23T19:51:05.270Z,83.81
2022-09-23T19:53:55.685Z,83.59
2022-09-23T19:56:46.378Z,83.77
2022-09-23T19:59:36.858Z,83.92
2022-09-23T20:02:28.326Z,83.86
2022-09-23T20:05:21.849Z,83.55
2022-09-23T20:08:11.875Z,84.00
2022-09-23T20:11:10.141Z,83.98
2022-09-23T20:14:05.231Z,84.19
2022-09-23T20:16:54.804Z,83.90
2022-09-23T20:19:46.054Z,84.15
2022-09-23T20:22:36.472Z,84.20
2022-09-23T20:25:26.733Z,84.26
2022-09-23T20:28:17.890Z,84.77
2022-09-23T20:31:08.471Z,84.55
2022-09-23T20:34:03.116Z,84.52
2022-09-23T20:36:53.282Z,84.60
2022-09-23T20:39:45.259Z,84.59
2022-09-23T20:42:36.601Z,84.50
2022-09-23T20:45:28.923Z,84.14
2022-09-23T20:48:19.683Z,84.13
2022-09-23T20:51:12.842Z,84.36
2022-09-23T20:54:03.603Z,84.26
2022-09-23T20:56:54.956Z,84.37
2022-09-23T20:59:48.549Z,84.32
2022-09-23T21:02:38.710Z,84.00
2022-09-23T21:05:28.776Z,84.13
2022-09-23T21:08:18.821Z,84.25
2022-09-23T21:11:14.618Z,84.49
2022-09-23T21:14:05.163Z,83.76
2022-09-23T21:16:58.733Z,83.60
2022-09-23T21:19:48.778Z,83.81
2022-09-23T21:22:38.876Z,83.75
2022-09-23T21:25:29.752Z,84.00
2022-09-23T21:28:20.921Z,83.67
2022-09-23T21:31:16.571Z,84.25
2022-09-23T21:34:09.065Z,83.87
2022-09-23T21:36:59.482Z,83.76
2022-09-23T21:40:09.107Z,83.55
2022-09-23T21:43:02.895Z,84.32
2022-09-23T21:46:03.729Z,83.90
2022-09-23T21:48:56.532Z,84.04
2022-09-23T21:51:46.389Z,84.06
2022-09-23T21:54:37.596Z,83.86
2022-09-23T21:57:28.230Z,83.85
2022-09-23T22:00:19.407Z,83.98
2022-09-23T22:03:13.435Z,84.44
2022-09-23T22:06:15.382Z,84.39
2022-09-23T22:09:12.078Z,84.56
2022-09-23T22:12:13.100Z,84.22
2022-09-23T22:15:06.296Z,84.31
2022-09-23T22:17:56.706Z,84.14
2022-09-23T22:20:48.436Z,84.25
2022-09-23T22:23:40.998Z,84.37
2022-09-23T22:26:43.646Z,84.58
2022-09-23T22:29:52.070Z,84.73
2022-09-23T22:32:42.469Z,84.58
2022-09-23T22:35:32.024Z,84.35
2022-09-23T22:38:22.101Z,84.48
2022-09-23T22:41:16.662Z,84.68
2022-09-23T22:44:07.677Z,84.70
2022-09-23T22:47:00.179Z,84.40
2022-09-23T22:49:50.777Z,84.73
2022-09-23T22:52:40.930Z,84.57
2022-09-23T22:55:31.437Z,84.31
2022-09-23T22:58:32.382Z,84.54
2022-09-23T23:01:25.108Z,84.74
2022-09-23T23:04:16.231Z,84.44
2022-09-23T23:07:08.024Z,84.65
2022-09-23T23:10:00.203Z,84.81
2022-09-23T23:12:53.598Z,85.57
2022-09-23T23:15:48.315Z,85.20
2022-09-23T23:18:43.747Z,85.32
2022-09-23T23:21:35.375Z,84.59
2022-09-23T23:24:26.766Z,84.55
2022-09-23T23:27:17.816Z,84.76
2022-09-23T23:30:09.779Z,84.81
2022-09-23T23:33:00.417Z,85.01
2022-09-23T23:35:53.813Z,85.22
2022-09-23T23:38:46.461Z,84.87
2022-09-23T23:41:37.150Z,84.54
2022-09-23T23:44:31.018Z,84.38
2022-09-23T23:47:22.800Z,84.06
2022-09-23T23:50:14.623Z,83.94
2022-09-23T23:53:06.864Z,84.35
2022-09-23T23:55:59.351Z,84.54
2022-09-23T23:58:49.834Z,84.14
